Time;durP1;ratioP1;P1;durP2;ratioP2;P2;SDS_P1;SDS_P2;PMS_P1;PMS_P2;Temp;Humidity;BMP_temperature;BMP_pressure;BME280_temperature;BME280_humidity;BME280_pressure;Samples;Min_cycle;Max_cycle;Signal;HPM_P1;HPM_P2
2022/11/14 00:00:27;;;;;;;;;21.50;18.25;;;;;10.93;100.00;101156.06;5074147;28;45644;-75
2022/11/14 00:02:53;;;;;;;;;25.50;20.25;;;;;10.90;100.00;101150.72;5084161;27;45399;-74
2022/11/14 00:05:19;;;;;;;;;21.25;16.50;;;;;10.90;100.00;101152.47;5092058;27;45878;-74
2022/11/14 00:07:46;;;;;;;;;21.00;19.75;;;;;10.94;100.00;101152.53;5077143;27;45632;-74
2022/11/14 00:10:12;;;;;;;;;24.50;20.75;;;;;10.92;100.00;101146.38;5075110;27;46747;-75
2022/11/14 00:12:37;;;;;;;;;20.75;17.25;;;;;10.93;100.00;101141.97;5095439;27;45462;-74
2022/11/14 00:15:03;;;;;;;;;27.25;21.00;;;;;10.96;100.00;101150.78;5077059;27;57241;-74
2022/11/14 00:17:28;;;;;;;;;26.75;22.75;;;;;10.99;100.00;101144.69;5093995;27;45336;-75
2022/11/14 00:19:54;;;;;;;;;28.25;21.00;;;;;11.00;100.00;101134.13;5092800;27;46610;-74
2022/11/14 00:22:19;;;;;;;;;25.50;22.75;;;;;11.02;100.00;101127.13;5077816;27;45363;-74
2022/11/14 00:24:44;;;;;;;;;24.50;20.75;;;;;11.07;100.00;101128.94;5093736;27;61327;-74
2022/11/14 00:27:11;;;;;;;;;25.25;21.75;;;;;11.10;100.00;101128.97;5095635;27;45338;-75
2022/11/14 00:29:36;;;;;;;;;33.00;22.25;;;;;11.14;100.00;101130.81;5094759;27;47818;-75
2022/11/14 00:32:02;;;;;;;;;22.50;16.50;;;;;11.18;100.00;101132.59;5095182;27;45465;-75
2022/11/14 00:34:27;;;;;;;;;22.25;19.25;;;;;11.19;100.00;101124.72;5090142;27;45971;-75
2022/11/14 00:36:52;;;;;;;;;27.50;21.75;;;;;11.22;100.00;101134.41;5095750;27;45366;-74
2022/11/14 00:39:18;;;;;;;;;29.50;25.00;;;;;11.23;100.00;101134.44;5093023;27;63041;-74
2022/11/14 00:41:43;;;;;;;;;35.25;25.00;;;;;11.27;100.00;101133.59;5093613;27;64676;-74
2022/11/14 00:44:10;;;;;;;;;32.50;22.00;;;;;11.27;100.00;101119.50;5089749;27;56579;-75
2022/11/14 00:46:35;;;;;;;;;25.50;23.75;;;;;11.28;100.00;101105.41;5098870;27;45569;-74
2022/11/14 00:49:01;;;;;;;;;29.25;24.50;;;;;11.34;100.00;101110.78;5092017;27;45685;-74
2022/11/14 00:51:26;;;;;;;;;28.50;23.25;;;;;11.32;100.00;101123.09;5092495;27;63896;-74
2022/11/14 00:53:51;;;;;;;;;35.00;22.25;;;;;11.35;100.00;101125.78;5065506;28;45616;-74
2022/11/14 00:56:17;;;;;;;;;23.75;22.50;;;;;11.36;100.00;101109.06;5095361;27;55388;-74
2022/11/14 00:58:42;;;;;;;;;29.00;22.50;;;;;11.40;100.00;101113.53;5098976;27;54206;-74
2022/11/14 01:01:07;;;;;;;;;35.25;23.75;;;;;11.40;100.00;101112.59;5098501;27;59639;-74
2022/11/14 01:03:33;;;;;;;;;27.50;23.00;;;;;11.40;100.00;101108.22;5095270;27;46081;-75
2022/11/14 01:06:03;;;;;;;;;29.75;21.00;;;;;11.40;100.00;101110.88;5080764;27;45472;-74
2022/11/14 01:08:29;;;;;;;;;24.50;17.75;;;;;11.42;100.00;101105.59;5081195;27;46066;-73
2022/11/14 01:10:54;;;;;;;;;27.50;22.00;;;;;11.39;100.00;101098.50;5094567;27;59730;-74
2022/11/14 01:13:19;;;;;;;;;27.50;22.25;;;;;11.37;100.00;101104.66;5078354;27;65674;-73
2022/11/14 01:15:47;;;;;;;;;32.50;24.25;;;;;11.35;100.00;101101.13;5096079;27;45419;-74
2022/11/14 01:18:16;;;;;;;;;26.50;22.00;;;;;11.34;100.00;101102.84;5098325;27;45536;-74
2022/11/14 01:20:42;;;;;;;;;27.25;18.75;;;;;11.33;100.00;101100.19;5098147;27;45421;-74
2022/11/14 01:23:09;;;;;;;;;26.50;20.50;;;;;11.30;100.00;101095.78;5079862;27;45575;-74
2022/11/14 01:25:35;;;;;;;;;23.50;20.75;;;;;11.29;100.00;101091.31;5080588;27;45402;-75
2022/11/14 01:28:00;;;;;;;;;26.00;23.50;;;;;11.31;100.00;101094.91;5079367;27;45416;-74
2022/11/14 01:30:26;;;;;;;;;21.00;17.00;;;;;11.30;100.00;101097.53;5076595;28;45328;-74
2022/11/14 01:35:23;;;;;;;;;29.00;22.75;;;;;11.30;100.00;101092.25;5074742;28;46082;-74
2022/11/14 01:37:48;;;;;;;;;29.50;21.50;;;;;11.29;100.00;101086.03;5077504;28;46798;-74
2022/11/14 01:40:14;;;;;;;;;18.00;17.00;;;;;11.28;100.00;101078.97;5076120;28;59519;-73
2022/11/14 01:42:40;;;;;;;;;22.25;20.00;;;;;11.26;100.00;101078.09;5065892;28;45477;-73
2022/11/14 01:45:42;;;;;;;;;22.00;20.75;;;;;11.24;100.00;101067.50;5077490;28;57355;-73
2022/11/14 01:48:18;;;;;;;;;27.75;19.00;;;;;11.20;100.00;101060.41;5072698;28;45547;-75
2022/11/14 01:50:43;;;;;;;;;23.25;19.50;;;;;11.17;100.00;101062.13;5053110;28;45369;-74
2022/11/14 01:53:09;;;;;;;;;22.25;19.25;;;;;11.12;100.00;101061.16;5075954;28;62600;-74
2022/11/14 01:55:34;;;;;;;;;24.50;21.25;;;;;11.07;100.00;101063.75;5052692;28;46934;-73
2022/11/14 01:57:59;;;;;;;;;27.00;21.00;;;;;11.04;100.00;101057.56;5071128;28;64813;-74
2022/11/14 02:00:25;;;;;;;;;26.75;22.75;;;;;11.01;100.00;101061.91;5053368;28;45366;-74
2022/11/14 02:02:50;;;;;;;;;15.50;14.00;;;;;10.99;100.00;101068.06;5075268;28;59150;-75
2022/11/14 02:05:16;;;;;;;;;26.25;21.00;;;;;10.99;100.00;101058.38;5050965;28;58093;-74
2022/11/14 02:07:42;;;;;;;;;25.50;21.25;;;;;10.98;100.00;101051.31;5075525;28;65426;-75
2022/11/14 02:10:13;;;;;;;;;23.00;21.00;;;;;11.00;100.00;101052.22;5075738;27;67047;-74
2022/11/14 02:12:39;;;;;;;;;28.00;23.50;;;;;11.02;100.00;101057.50;5070081;28;45509;-74
2022/11/14 02:15:04;;;;;;;;;22.50;22.00;;;;;11.05;100.00;101057.56;5076933;28;61573;-74
2022/11/14 02:17:30;;;;;;;;;31.00;23.50;;;;;11.08;100.00;101057.63;5076602;28;46170;-75
2022/11/14 02:20:06;;;;;;;;;25.50;23.50;;;;;11.11;100.00;101055.00;5071966;28;68659;-76
2022/11/14 02:22:31;;;;;;;;;29.75;22.75;;;;;11.15;100.00;101058.56;5076536;28;45264;-75
2022/11/14 02:24:57;;;;;;;;;27.00;23.00;;;;;11.18;100.00;101051.56;5074272;28;45280;-75
2022/11/14 02:27:22;;;;;;;;;32.25;23.25;;;;;11.20;100.00;101057.75;5077010;28;47425;-74
2022/11/14 02:29:47;;;;;;;;;30.50;26.25;;;;;11.22;100.00;101056.00;5076446;28;66243;-74
2022/11/14 02:32:13;;;;;;;;;26.75;21.25;;;;;11.25;100.00;101049.88;5076244;28;59255;-74
2022/11/14 02:34:38;;;;;;;;;32.25;26.00;;;;;11.30;100.00;101055.25;5090197;27;45563;-74
2022/11/14 02:37:04;;;;;;;;;28.25;21.50;;;;;11.30;100.00;101050.84;5090147;27;46098;-74
2022/11/14 02:39:29;;;;;;;;;29.50;27.25;;;;;11.33;100.00;101047.31;5094524;27;45223;-74
2022/11/14 02:41:54;;;;;;;;;28.00;24.50;;;;;11.32;100.00;101042.91;5095759;27;56002;-74
2022/11/14 02:44:20;;;;;;;;;27.25;22.00;;;;;11.32;100.00;101035.88;5097131;27;50107;-74
2022/11/14 02:46:45;;;;;;;;;29.25;23.00;;;;;11.33;100.00;101036.75;5097095;27;52590;-75
2022/11/14 02:49:10;;;;;;;;;30.00;20.50;;;;;11.34;100.00;101028.81;5087920;27;61438;-75
2022/11/14 02:51:36;;;;;;;;;27.50;20.75;;;;;11.34;100.00;101033.22;5097273;27;45430;-74
2022/11/14 02:54:01;;;;;;;;;32.00;23.50;;;;;11.35;100.00;101027.09;5088913;27;57847;-74
2022/11/14 02:56:26;;;;;;;;;26.00;20.50;;;;;11.35;100.00;101035.91;5093560;27;65318;-75
2022/11/14 02:58:52;;;;;;;;;33.50;25.75;;;;;11.36;100.00;101035.03;5076335;28;45240;-74
2022/11/14 03:01:18;;;;;;;;;25.00;21.50;;;;;11.36;100.00;101039.44;5092539;27;64599;-74
2022/11/14 03:03:43;;;;;;;;;23.25;21.00;;;;;11.36;100.00;101034.16;5098114;27;45630;-75
2022/11/14 03:06:08;;;;;;;;;30.75;20.75;;;;;11.34;100.00;101015.59;5096533;27;65721;-74
2022/11/14 03:08:34;;;;;;;;;31.00;22.50;;;;;11.34;100.00;101012.06;5073571;28;65300;-75
2022/11/14 03:11:04;;;;;;;;;28.75;20.50;;;;;11.31;100.00;101005.00;5086930;27;45426;-74
2022/11/14 03:13:29;;;;;;;;;25.25;17.00;;;;;11.31;100.00;101010.31;5097429;27;45297;-74
2022/11/14 03:15:55;;;;;;;;;29.00;20.25;;;;;11.29;100.00;101006.75;5097481;27;46029;-74
2022/11/14 03:18:20;;;;;;;;;20.25;17.00;;;;;11.27;100.00;101004.09;5097685;27;45439;-75
2022/11/14 03:20:46;;;;;;;;;26.25;17.50;;;;;11.24;100.00;101004.06;5096870;27;45398;-74
2022/11/14 03:23:11;;;;;;;;;24.50;16.75;;;;;11.25;100.00;101002.31;5097415;27;51402;-74
2022/11/14 03:25:36;;;;;;;;;21.00;15.50;;;;;11.26;100.00;101010.25;5097048;27;45322;-74
2022/11/14 03:28:02;;;;;;;;;22.50;19.50;;;;;11.27;100.00;101003.19;5096902;27;45292;-74
2022/11/14 03:30:27;;;;;;;;;26.75;19.00;;;;;11.27;100.00;101000.56;5096094;27;47668;-75
2022/11/14 03:32:52;;;;;;;;;21.75;16.00;;;;;11.28;100.00;101005.84;5096821;27;45150;-74
2022/11/14 03:35:18;;;;;;;;;16.25;14.25;;;;;11.27;100.00;101004.09;5073979;28;64136;-74
2022/11/14 03:37:43;;;;;;;;;19.00;15.00;;;;;11.27;100.00;101013.78;5075172;28;61498;-74
2022/11/14 03:40:09;;;;;;;;;20.75;14.50;;;;;11.26;100.00;101009.38;5075608;28;59127;-75
2022/11/14 03:42:34;;;;;;;;;22.75;15.00;;;;;11.23;100.00;101015.50;5076240;27;45468;-74
2022/11/14 03:45:00;;;;;;;;;28.25;19.75;;;;;11.23;100.00;101009.31;5072302;28;46495;-74
2022/11/14 03:47:25;;;;;;;;;13.50;11.50;;;;;11.22;100.00;101007.56;5076982;27;45342;-75
2022/11/14 03:49:51;;;;;;;;;24.00;15.50;;;;;11.21;100.00;101001.38;5075977;27;54267;-74
2022/11/14 03:52:16;;;;;;;;;25.00;20.00;;;;;11.22;100.00;100996.97;5074514;28;55870;-73
2022/11/14 03:54:41;;;;;;;;;20.75;15.25;;;;;11.22;100.00;100989.03;5074924;28;61601;-74
2022/11/14 03:57:06;;;;;;;;;23.00;18.75;;;;;11.21;100.00;100984.63;5073959;28;67472;-74
2022/11/14 03:59:32;;;;;;;;;25.00;18.50;;;;;11.18;100.00;100996.03;5075090;27;46238;-74
2022/11/14 04:01:57;;;;;;;;;22.50;20.00;;;;;11.17;100.00;100999.56;5074981;28;46244;-74
2022/11/14 04:04:22;;;;;;;;;26.00;18.75;;;;;11.16;100.00;100987.22;5075214;27;59324;-73
2022/11/14 04:06:48;;;;;;;;;22.75;18.00;;;;;11.16;100.00;100983.69;5074790;27;63201;-74
2022/11/14 04:09:13;;;;;;;;;23.50;21.50;;;;;11.16;100.00;100983.69;5075693;27;45322;-73
2022/11/14 04:11:38;;;;;;;;;27.50;20.25;;;;;11.16;100.00;100976.66;5073971;28;57565;-74
2022/11/14 04:14:04;;;;;;;;;26.50;17.00;;;;;11.16;100.00;100981.06;5074671;27;69950;-74
2022/11/14 04:16:29;;;;;;;;;21.50;19.00;;;;;11.15;100.00;100993.38;5068762;28;45267;-74
2022/11/14 04:18:54;;;;;;;;;18.00;12.50;;;;;11.16;100.00;100973.13;5074776;28;62455;-74
2022/11/14 04:21:20;;;;;;;;;27.50;20.75;;;;;11.14;100.00;100974.88;5079563;27;45239;-74
2022/11/14 04:23:45;;;;;;;;;20.50;18.25;;;;;11.14;100.00;100990.75;5078186;27;67108;-74
2022/11/14 04:26:10;;;;;;;;;20.75;16.00;;;;;11.13;100.00;101000.44;5078218;27;63722;-74
2022/11/14 04:28:36;;;;;;;;;23.75;17.75;;;;;11.13;100.00;100986.28;5078245;28;45349;-74
2022/11/14 04:31:01;;;;;;;;;13.25;10.75;;;;;11.13;100.00;100997.78;5078265;28;61395;-74
2022/11/14 04:33:26;;;;;;;;;19.00;16.75;;;;;11.14;100.00;100993.38;5081638;27;67532;-75
2022/11/14 04:35:52;;;;;;;;;21.50;14.75;;;;;11.15;100.00;100997.78;5098731;27;63149;-74
2022/11/14 04:38:17;;;;;;;;;20.75;16.75;;;;;11.15;100.00;100996.03;5097953;27;49218;-74
2022/11/14 04:40:52;;;;;;;;;20.25;14.50;;;;;11.15;100.00;100993.38;5091583;27;45330;-74
2022/11/14 04:43:19;;;;;;;;;15.75;12.25;;;;;11.13;100.00;100997.78;5097897;27;45792;-74
2022/11/14 04:45:44;;;;;;;;;20.75;17.00;;;;;11.15;100.00;100992.50;5099157;27;45481;-74
2022/11/14 04:48:09;;;;;;;;;17.25;15.50;;;;;11.16;100.00;100981.06;5099144;27;45488;-74
2022/11/14 04:50:35;;;;;;;;;15.25;14.25;;;;;11.16;100.00;100989.00;5099075;27;62068;-75
2022/11/14 04:53:00;;;;;;;;;16.00;15.25;;;;;11.16;100.00;100986.34;5098765;27;64497;-74
2022/11/14 04:55:26;;;;;;;;;16.00;13.50;;;;;11.15;100.00;100969.59;5094754;27;45264;-74
2022/11/14 04:57:55;;;;;;;;;16.00;14.75;;;;;11.15;100.00;100974.88;5098641;27;59575;-75
2022/11/14 05:00:21;;;;;;;;;15.50;10.25;;;;;11.15;100.00;100969.59;5078661;27;45639;-75
2022/11/14 05:02:46;;;;;;;;;16.25;15.50;;;;;11.15;100.00;100972.25;5078022;28;51837;-74
2022/11/14 05:05:12;;;;;;;;;15.50;13.75;;;;;11.15;100.00;100964.31;5097638;27;45336;-74
2022/11/14 05:07:37;;;;;;;;;20.75;15.50;;;;;11.15;100.00;100964.31;5097361;27;45754;-74
2022/11/14 05:10:03;;;;;;;;;17.75;14.50;;;;;11.16;100.00;100960.81;5098590;27;45500;-73
2022/11/14 05:12:29;;;;;;;;;17.75;15.00;;;;;11.16;100.00;100958.16;5089385;27;47004;-73
2022/11/14 05:14:54;;;;;;;;;19.50;16.00;;;;;11.18;100.00;100958.16;5098756;27;61031;-75
2022/11/14 05:17:19;;;;;;;;;17.25;13.00;;;;;11.17;100.00;100952.00;5098147;27;62572;-75
2022/11/14 05:19:44;;;;;;;;;18.00;16.00;;;;;11.19;100.00;100957.31;5105074;27;45356;-74
2022/11/14 05:22:10;;;;;;;;;16.50;12.75;;;;;11.20;100.00;100951.16;5098167;27;63574;-74
2022/11/14 05:24:35;;;;;;;;;21.50;17.75;;;;;11.20;100.00;100944.13;5097729;27;60197;-74
2022/11/14 05:27:00;;;;;;;;;21.25;18.75;;;;;11.21;100.00;100948.53;5097390;27;45513;-74
2022/11/14 05:29:26;;;;;;;;;25.50;18.00;;;;;11.21;100.00;100942.34;5096946;27;58573;-74
2022/11/14 05:31:51;;;;;;;;;24.25;17.75;;;;;11.22;100.00;100946.75;5096530;27;46449;-75
2022/11/14 05:34:16;;;;;;;;;24.25;21.25;;;;;11.23;100.00;100948.53;5097340;27;63104;-74
2022/11/14 05:36:42;;;;;;;;;21.00;16.75;;;;;11.23;100.00;100949.41;5097383;27;64093;-74
2022/11/14 05:39:07;;;;;;;;;21.50;16.75;;;;;11.24;100.00;100940.63;5092512;27;60066;-75
2022/11/14 05:41:32;;;;;;;;;12.75;9.00;;;;;11.24;100.00;100938.00;5093483;27;62982;-74
2022/11/14 05:43:58;;;;;;;;;23.00;15.00;;;;;11.23;100.00;100920.34;5097861;27;45353;-75
2022/11/14 05:46:23;;;;;;;;;27.75;16.00;;;;;11.27;100.00;100926.53;5092581;27;45249;-74
2022/11/14 05:48:48;;;;;;;;;19.00;13.50;;;;;11.27;100.00;100924.78;5091435;27;61515;-74
2022/11/14 05:51:14;;;;;;;;;24.25;15.00;;;;;11.27;100.00;100918.63;5096150;27;66488;-74
2022/11/14 05:53:39;;;;;;;;;17.00;13.25;;;;;11.27;100.00;100910.69;5097553;27;45275;-74
2022/11/14 05:56:08;;;;;;;;;22.00;15.75;;;;;11.28;100.00;100915.97;5080161;27;45527;-75
2022/11/14 05:58:34;;;;;;;;;16.00;13.25;;;;;11.28;100.00;100910.69;5073981;27;45625;-74
2022/11/14 06:01:04;;;;;;;;;21.00;17.25;;;;;11.28;100.00;100912.44;5080090;27;45489;-74
2022/11/14 06:03:34;;;;;;;;;25.25;16.50;;;;;11.28;100.00;100910.69;5097772;27;45418;-74
2022/11/14 06:06:01;;;;;;;;;24.00;14.75;;;;;11.28;100.00;100904.53;5098666;27;45320;-74
2022/11/14 06:08:28;;;;;;;;;19.00;15.75;;;;;11.26;100.00;100904.53;5097604;27;45418;-74
2022/11/14 06:10:53;;;;;;;;;27.75;18.75;;;;;11.23;100.00;100893.91;5094858;27;45546;-74
2022/11/14 06:13:19;;;;;;;;;16.25;15.00;;;;;11.23;100.00;100900.94;5092358;27;45207;-74
2022/11/14 06:15:44;;;;;;;;;15.75;14.25;;;;;11.22;100.00;100901.84;5096587;27;59988;-75
2022/11/14 06:18:09;;;;;;;;;24.25;18.50;;;;;11.21;100.00;100902.72;5094733;27;53845;-74
2022/11/14 06:20:35;;;;;;;;;27.75;17.00;;;;;11.22;100.00;100901.84;5094689;27;68466;-75
2022/11/14 06:23:00;;;;;;;;;18.75;16.25;;;;;11.21;100.00;100906.22;5087721;27;58557;-75
2022/11/14 06:25:26;;;;;;;;;23.50;16.00;;;;;11.21;100.00;100908.88;5084784;27;48517;-75
2022/11/14 06:27:51;;;;;;;;;24.25;20.75;;;;;11.21;100.00;100913.28;5084536;27;63979;-75
2022/11/14 06:30:16;;;;;;;;;25.75;18.25;;;;;11.22;100.00;100902.72;5079250;27;65376;-75
2022/11/14 06:32:42;;;;;;;;;20.00;15.25;;;;;11.23;100.00;100908.88;5080935;27;45405;-75
2022/11/14 06:35:07;;;;;;;;;29.50;19.50;;;;;11.26;100.00;100909.81;5094251;27;57976;-74
2022/11/14 06:37:35;;;;;;;;;24.25;19.25;;;;;11.27;100.00;100903.63;5071076;27;45394;-75
2022/11/14 06:40:01;;;;;;;;;23.00;19.25;;;;;11.32;100.00;100908.09;5094916;27;45425;-75
2022/11/14 06:42:26;;;;;;;;;22.50;16.00;;;;;11.33;100.00;100904.56;5070575;27;61636;-74
2022/11/14 06:44:51;;;;;;;;;22.50;18.00;;;;;11.35;100.00;100908.13;5096714;27;52406;-74
2022/11/14 06:47:17;;;;;;;;;24.25;20.00;;;;;11.35;100.00;100911.66;5096442;27;64756;-74
2022/11/14 06:49:42;;;;;;;;;22.75;21.00;;;;;11.36;100.00;100901.97;5076993;27;45328;-75
2022/11/14 06:52:07;;;;;;;;;12.50;10.50;;;;;11.36;100.00;100915.19;5092049;27;63010;-75
2022/11/14 06:54:33;;;;;;;;;21.25;14.00;;;;;11.37;100.00;100919.59;5094750;27;60311;-75
2022/11/14 06:56:58;;;;;;;;;21.00;18.25;;;;;11.38;100.00;100922.25;5090654;27;45280;-75
2022/11/14 06:59:23;;;;;;;;;25.50;16.00;;;;;11.39;100.00;100923.13;5095772;27;67676;-75
2022/11/14 07:01:49;;;;;;;;;20.75;20.75;;;;;11.39;100.00;100923.13;5096114;27;63400;-74
2022/11/14 07:04:14;;;;;;;;;17.50;15.25;;;;;11.39;100.00;100921.38;5095431;27;61633;-75
2022/11/14 07:06:39;;;;;;;;;22.00;15.00;;;;;11.41;100.00;100934.63;5096331;27;45508;-74
2022/11/14 07:09:05;;;;;;;;;18.00;14.00;;;;;11.41;100.00;100939.91;5093239;27;66886;-75
2022/11/14 07:11:30;;;;;;;;;18.50;12.50;;;;;11.41;100.00;100950.50;5093595;27;45212;-76
2022/11/14 07:14:00;;;;;;;;;27.00;15.67;;;;;11.41;100.00;100939.91;5095143;27;45556;-75
2022/11/14 07:16:31;;;;;;;;;15.25;14.00;;;;;11.40;100.00;100952.25;5093891;27;45528;-75
2022/11/14 07:18:57;;;;;;;;;12.00;12.00;;;;;11.41;100.00;100946.09;5091383;27;45634;-73
2022/11/14 07:21:24;;;;;;;;;17.25;14.25;;;;;11.39;100.00;100953.09;5086096;27;45293;-74
2022/11/14 07:23:50;;;;;;;;;14.67;13.33;;;;;11.41;100.00;100951.38;5070454;27;45414;-75
2022/11/14 07:26:15;;;;;;;;;20.25;15.00;;;;;11.41;100.00;100954.00;5095826;27;45570;-74
2022/11/14 07:28:42;;;;;;;;;21.25;16.00;;;;;11.41;100.00;100948.72;5087258;27;68411;-75
2022/11/14 07:31:15;;;;;;;;;18.50;15.25;;;;;11.41;100.00;100946.09;5082661;27;46042;-74
2022/11/14 07:33:41;;;;;;;;;13.75;11.75;;;;;11.41;100.00;100954.00;5093499;27;45399;-75
2022/11/14 07:36:08;;;;;;;;;12.33;11.33;;;;;11.40;100.00;100952.25;5086330;27;45620;-77
2022/11/14 07:38:34;;;;;;;;;20.75;15.50;;;;;11.39;100.00;100949.56;5060008;27;47207;-78
2022/11/14 07:41:03;;;;;;;;;12.50;10.25;;;;;11.39;100.00;100947.81;5095233;27;45467;-74
2022/11/14 07:43:28;;;;;;;;;12.00;10.50;;;;;11.39;100.00;100946.91;5072084;27;45552;-74
2022/11/14 07:45:58;;;;;;;;;14.33;12.67;;;;;11.37;100.00;100944.28;5085515;27;54638;-75
2022/11/14 07:48:24;;;;;;;;;14.50;10.75;;;;;11.36;100.00;100952.19;5083582;27;46543;-75
2022/11/14 07:50:49;;;;;;;;;12.00;8.50;;;;;11.36;100.00;100936.34;5088703;27;46863;-76
2022/11/14 07:53:16;;;;;;;;;14.75;14.00;;;;;11.36;100.00;100942.50;5093710;27;45758;-76
2022/11/14 07:55:42;;;;;;;;;18.25;13.00;;;;;11.35;100.00;100946.03;5097653;27;45398;-76
2022/11/14 07:58:07;;;;;;;;;9.50;9.50;;;;;11.35;100.00;100951.31;5096630;27;46226;-81
2022/11/14 08:00:32;;;;;;;;;17.00;10.75;;;;;11.36;100.00;100944.25;5096932;27;45351;-76
2022/11/14 08:02:58;;;;;;;;;13.75;10.75;;;;;11.37;100.00;100941.63;5096257;27;57047;-74
2022/11/14 08:05:23;;;;;;;;;16.25;14.00;;;;;11.32;100.00;100940.69;5095026;27;45674;-72
2022/11/14 08:07:52;;;;;;;;;14.75;12.25;;;;;11.18;100.00;100937.03;5096647;27;66974;-72
2022/11/14 08:10:17;;;;;;;;;18.00;14.50;;;;;11.03;100.00;100935.13;5092738;27;45513;-72
2022/11/14 08:12:43;;;;;;;;;16.25;15.00;;;;;10.95;100.00;100942.06;5096021;27;45319;-73
2022/11/14 08:15:10;;;;;;;;;15.00;12.25;;;;;10.93;100.00;100942.06;5091748;27;45618;-73
2022/11/14 08:17:36;;;;;;;;;17.00;15.00;;;;;10.94;100.00;100935.03;5097898;27;46935;-73
2022/11/14 08:20:02;;;;;;;;;18.00;13.50;;;;;10.99;100.00;100931.56;5090922;27;45424;-73
2022/11/14 08:22:28;;;;;;;;;12.50;8.75;;;;;11.05;100.00;100938.66;5098305;27;45480;-73
2022/11/14 08:24:53;;;;;;;;;11.00;10.00;;;;;11.09;100.00;100935.19;5091594;27;45553;-73
2022/11/14 08:27:18;;;;;;;;;17.25;12.75;;;;;11.14;100.00;100935.25;5095801;27;66371;-72
2022/11/14 08:29:44;;;;;;;;;16.75;14.00;;;;;11.16;100.00;100937.00;5096026;27;61025;-72
2022/11/14 08:32:09;;;;;;;;;11.25;11.00;;;;;11.19;100.00;100939.69;5096640;27;59617;-73
2022/11/14 08:34:35;;;;;;;;;11.50;10.25;;;;;11.24;100.00;100939.75;5094510;27;45628;-72
2022/11/14 08:37:01;;;;;;;;;13.50;13.25;;;;;11.27;100.00;100931.84;5095841;27;46468;-72
2022/11/14 08:39:26;;;;;;;;;15.50;15.00;;;;;11.32;100.00;100931.88;5096181;27;45452;-73
2022/11/14 08:41:52;;;;;;;;;15.75;14.25;;;;;11.34;100.00;100938.94;5096118;27;63900;-72
2022/11/14 08:44:17;;;;;;;;;16.00;15.50;;;;;11.36;100.00;100941.63;5098214;27;52477;-73
2022/11/14 08:46:42;;;;;;;;;19.00;15.00;;;;;11.37;100.00;100938.97;5096820;27;64975;-72
2022/11/14 08:49:08;;;;;;;;;17.50;14.75;;;;;11.41;100.00;100947.84;5084926;27;66070;-73
2022/11/14 08:51:33;;;;;;;;;17.25;12.75;;;;;11.45;100.00;100939.03;5092507;27;64057;-72
2022/11/14 08:53:58;;;;;;;;;18.50;16.25;;;;;11.47;100.00;100935.56;5096037;27;49298;-72
2022/11/14 08:56:24;;;;;;;;;15.33;11.33;;;;;11.52;100.00;100943.53;5094965;27;46482;-72
2022/11/14 08:58:49;;;;;;;;;22.25;14.25;;;;;11.52;100.00;100936.47;5098923;27;63077;-73
2022/11/14 09:01:14;;;;;;;;;21.25;14.00;;;;;11.58;100.00;100946.22;5098080;27;60124;-72
2022/11/14 09:03:40;;;;;;;;;22.00;16.00;;;;;11.64;100.00;100937.47;5097010;27;49165;-72
2022/11/14 09:06:05;;;;;;;;;18.75;14.75;;;;;11.68;100.00;100945.44;5095966;27;65000;-73
2022/11/14 09:08:30;;;;;;;;;17.50;16.00;;;;;11.71;100.00;100944.56;5098638;27;45392;-72
2022/11/14 09:10:59;;;;;;;;;17.50;16.50;;;;;11.74;100.00;100939.31;5098659;27;45512;-72
2022/11/14 09:13:26;;;;;;;;;18.75;14.50;;;;;11.76;100.00;100937.53;5097224;27;45407;-72
2022/11/14 09:15:51;;;;;;;;;15.25;14.25;;;;;11.82;100.00;100939.38;5096951;27;46772;-72
2022/11/14 09:18:16;;;;;;;;;18.75;15.25;;;;;11.85;100.00;100939.44;5096866;27;61001;-72
2022/11/14 09:20:42;;;;;;;;;21.75;16.25;;;;;11.89;100.00;100934.16;5095871;27;52733;-72
2022/11/14 09:23:08;;;;;;;;;16.00;12.00;;;;;11.94;100.00;100934.22;5092164;27;45516;-72
2022/11/14 09:25:34;;;;;;;;;15.00;12.50;;;;;11.97;100.00;100923.63;5094814;27;47387;-73
2022/11/14 09:28:05;;;;;;;;;15.00;11.25;;;;;11.98;100.00;100925.38;5089683;27;45510;-73
2022/11/14 09:30:31;;;;;;;;;24.00;20.00;;;;;12.00;100.00;100937.78;5093720;27;45450;-73
2022/11/14 09:33:00;;;;;;;;;16.75;16.75;;;;;12.03;100.00;100940.41;5093265;27;45367;-72
2022/11/14 09:35:26;;;;;;;;;16.75;12.75;;;;;12.03;100.00;100928.94;5080986;27;46271;-72
2022/11/14 09:38:06;;;;;;;;;16.75;13.50;;;;;12.04;100.00;100931.63;5092434;27;45512;-72
2022/11/14 09:40:54;;;;;;;;;11.33;11.00;;;;;12.02;100.00;100936.00;5097576;27;45364;-72
2022/11/14 09:43:40;;;;;;;;;17.00;14.67;;;;;11.99;100.00;100933.38;5079050;27;45581;-73
2022/11/14 09:46:22;;;;;;;;;17.75;14.25;;;;;11.94;100.00;100929.78;5077020;27;47381;-72
2022/11/14 09:48:49;;;;;;;;;15.33;14.67;;;;;11.93;100.00;100933.31;5076384;27;45581;-73
2022/11/14 09:51:17;;;;;;;;;11.50;9.00;;;;;11.90;100.00;100930.66;5078869;27;56066;-73
2022/11/14 09:53:54;;;;;;;;;16.00;11.50;;;;;11.87;100.00;100927.97;5072318;27;45490;-73
2022/11/14 09:56:25;;;;;;;;;19.33;14.00;;;;;11.87;100.00;100924.44;5093973;27;47304;-73
2022/11/14 09:58:52;;;;;;;;;20.25;14.25;;;;;11.86;100.00;100927.97;5096434;27;45384;-73
2022/11/14 10:01:39;;;;;;;;;18.25;16.25;;;;;11.83;100.00;100920.91;5078790;27;45532;-72
2022/11/14 10:04:31;;;;;;;;;16.25;13.75;;;;;11.82;100.00;100919.09;5096476;27;45397;-73
2022/11/14 10:07:33;;;;;;;;;11.33;11.00;;;;;11.83;100.00;100928.84;5079640;27;46391;-72
2022/11/14 10:10:25;;;;;;;;;14.25;12.25;;;;;11.82;100.00;100939.38;5096296;27;45443;-73
2022/11/14 10:13:28;;;;;;;;;14.75;11.50;;;;;11.84;100.00;100938.53;5041802;27;45397;-72
2022/11/14 10:16:06;;;;;;;;;13.67;13.33;;;;;11.85;100.00;100931.50;5097414;27;46010;-73
2022/11/14 10:18:45;;;;;;;;;13.75;13.50;;;;;11.84;100.00;100937.66;5080140;27;45570;-73
2022/11/14 10:21:29;;;;;;;;;17.33;13.00;;;;;11.86;100.00;100928.84;5095048;27;45516;-73
2022/11/14 10:24:04;;;;;;;;;12.33;11.67;;;;;11.88;100.00;100926.19;5097160;27;45444;-78
2022/11/14 10:26:30;;;;;;;;;17.00;11.67;;;;;11.91;100.00;100919.19;5073742;27;45438;-77
2022/11/14 10:29:05;;;;;;;;;10.33;10.33;;;;;11.96;100.00;100922.75;5094302;27;46688;-76
2022/11/14 10:31:48;;;;;;;;;16.00;13.33;;;;;11.99;100.00;100919.25;5088657;27;45453;-75
2022/11/14 10:34:27;;;;;;;;;16.25;12.75;;;;;12.03;100.00;100913.97;5093313;27;45336;-75
2022/11/14 10:37:11;;;;;;;;;25.25;15.75;;;;;12.09;100.00;100905.19;5075073;27;45380;-75
2022/11/14 10:39:52;;;;;;;;;13.50;12.00;;;;;12.11;100.00;100906.09;5071117;27;48299;-76
2022/11/14 10:42:34;;;;;;;;;10.67;10.33;;;;;12.13;100.00;100899.03;5074694;27;45516;-75
2022/11/14 10:45:37;;;;;;;;;13.67;9.67;;;;;12.18;100.00;100891.13;5093643;27;45636;-77
2022/11/14 10:48:08;;;;;;;;;12.67;11.67;;;;;12.22;100.00;100895.56;5072907;27;45568;-75
2022/11/14 10:50:44;;;;;;;;;18.33;15.67;;;;;12.26;100.00;100897.34;5072080;27;45809;-76
2022/11/14 10:53:24;;;;;;;;;16.67;13.67;;;;;12.28;100.00;100890.28;5096982;27;45367;-76
2022/11/14 10:55:50;;;;;;;;;15.00;12.33;;;;;12.33;100.00;100888.53;5079761;27;45323;-76
2022/11/14 10:58:15;;;;;;;;;14.67;12.67;;;;;12.37;100.00;100881.50;5078984;27;45328;-76
2022/11/14 11:00:41;;;;;;;;;18.00;13.00;;;;;12.41;100.00;100886.84;5078975;27;70417;-76
2022/11/14 11:03:06;;;;;;;;;12.33;11.67;;;;;12.45;100.00;100878.00;5079590;27;45580;-76
2022/11/14 11:05:50;;;;;;;;;13.33;11.67;;;;;12.49;100.00;100873.59;5092716;27;45294;-77